createdAt,value
2023-03-15T00:03:47.328Z,7.21
2023-03-15T00:10:48.934Z,7.23
2023-03-15T00:17:50.514Z,6.95
2023-03-15T00:24:52.057Z,7.07
2023-03-15T00:31:53.676Z,6.86
2023-03-15T00:38:57.196Z,7.02
2023-03-15T00:45:58.842Z,7.02
2023-03-15T00:53:00.381Z,6.88
2023-03-15T01:00:08.642Z,6.93
2023-03-15T01:07:12.054Z,6.82
2023-03-15T01:14:13.623Z,6.85
2023-03-15T01:21:15.539Z,6.73
2023-03-15T01:28:20.372Z,6.77
2023-03-15T01:35:21.987Z,6.60
2023-03-15T01:42:23.906Z,6.80
2023-03-15T01:49:27.361Z,6.58
2023-03-15T01:56:29.313Z,6.60
2023-03-15T02:03:36.505Z,6.55
2023-03-15T02:10:44.911Z,6.62
2023-03-15T02:17:47.942Z,6.72
2023-03-15T02:24:54.768Z,6.68
2023-03-15T02:31:59.125Z,6.52
2023-03-15T02:39:00.694Z,6.50
2023-03-15T02:46:02.396Z,6.47
2023-03-15T02:53:04.597Z,6.50
2023-03-15T03:00:14.006Z,6.42
2023-03-15T03:07:15.673Z,6.30
2023-03-15T03:14:25.400Z,6.24
2023-03-15T03:21:27.061Z,6.37
2023-03-15T03:28:29.951Z,6.40
2023-03-15T03:35:32.845Z,6.35
2023-03-15T03:42:37.569Z,6.51
2023-03-15T03:49:40.320Z,6.28
2023-03-15T03:56:42.149Z,6.48
2023-03-15T04:03:44.764Z,6.38
2023-03-15T04:10:59.308Z,6.30
2023-03-15T04:18:05.679Z,6.31
2023-03-15T04:25:12.418Z,6.08
2023-03-15T04:32:17.978Z,6.09
2023-03-15T04:39:39.548Z,6.15
2023-03-15T04:47:04.115Z,6.13
2023-03-15T04:54:25.042Z,6.18
2023-03-15T05:01:37.171Z,5.98
2023-03-15T05:09:18.964Z,6.08
2023-03-15T05:16:55.295Z,5.86
2023-03-15T05:24:07.556Z,6.05
2023-03-15T05:31:36.966Z,5.88
2023-03-15T05:39:03.176Z,5.89
2023-03-15T05:46:25.088Z,5.92
2023-03-15T05:53:35.052Z,6.00
2023-03-15T06:00:46.310Z,6.19
2023-03-15T06:08:01.110Z,6.19
2023-03-15T06:15:02.818Z,6.10
2023-03-15T06:22:04.836Z,6.26
2023-03-15T06:29:16.524Z,6.24
2023-03-15T06:36:21.350Z,6.54
2023-03-15T06:43:23.055Z,6.46
2023-03-15T06:50:27.603Z,6.40
2023-03-15T06:57:29.425Z,6.46
2023-03-15T07:04:31.205Z,6.44
2023-03-15T07:11:32.777Z,6.67
2023-03-15T07:18:34.520Z,6.76
2023-03-15T07:25:52.125Z,6.96
2023-03-15T07:32:56.295Z,7.31
2023-03-15T07:40:00.460Z,7.31
2023-03-15T07:47:02.023Z,7.39
2023-03-15T07:54:03.755Z,7.13
2023-03-15T08:01:05.448Z,7.20
2023-03-15T08:08:07.342Z,7.36
2023-03-15T08:15:14.629Z,7.30
2023-03-15T08:22:16.482Z,7.47
2023-03-15T08:29:18.045Z,7.44
2023-03-15T08:36:19.986Z,7.54
2023-03-15T08:43:21.553Z,7.58
2023-03-15T08:50:23.444Z,7.76
2023-03-15T08:57:28.864Z,7.50
2023-03-15T09:04:31.356Z,7.65
2023-03-15T09:11:33.105Z,7.63
2023-03-15T09:18:34.692Z,7.70
2023-03-15T09:25:39.240Z,7.72
2023-03-15T09:32:40.908Z,7.92
2023-03-15T09:39:42.785Z,8.14
2023-03-15T09:46:49.626Z,8.16
2023-03-15T09:54:11.549Z,8.25
2023-03-15T10:01:13.498Z,8.46
2023-03-15T10:08:18.812Z,8.61
2023-03-15T10:15:20.452Z,8.62
2023-03-15T10:22:41.152Z,8.85
2023-03-15T10:29:42.604Z,8.95
2023-03-15T10:36:49.783Z,9.90
2023-03-15T10:44:02.036Z,11.55
2023-03-15T10:51:32.177Z,11.66
2023-03-15T10:58:41.062Z,10.71
2023-03-15T11:05:44.571Z,10.24
2023-03-15T11:12:46.092Z,10.02
2023-03-15T11:20:16.242Z,12.30
2023-03-15T11:27:18.949Z,13.80
2023-03-15T11:34:44.515Z,14.73
2023-03-15T11:41:57.385Z,13.72
2023-03-15T11:49:23.896Z,13.24
2023-03-15T11:56:27.523Z,14.57
2023-03-15T12:03:37.765Z,15.95
2023-03-15T12:10:49.533Z,14.27
2023-03-15T12:17:54.660Z,15.93
2023-03-15T12:24:56.671Z,17.88
2023-03-15T12:32:02.016Z,18.47
2023-03-15T12:39:20.865Z,17.58
2023-03-15T12:46:38.808Z,16.64
2023-03-15T12:53:42.511Z,17.39
2023-03-15T13:00:44.307Z,18.65
2023-03-15T13:07:56.448Z,19.63
2023-03-15T13:15:11.881Z,20.11
2023-03-15T13:22:36.014Z,19.99
2023-03-15T13:29:38.929Z,19.71
2023-03-15T13:36:47.960Z,19.97
2023-03-15T13:43:51.193Z,18.45
2023-03-15T13:50:52.933Z,16.52
2023-03-15T13:57:56.793Z,14.40
2023-03-15T14:05:00.524Z,13.62
2023-03-15T14:12:03.658Z,14.86
2023-03-15T14:19:25.336Z,15.89
2023-03-15T14:26:28.011Z,15.07
2023-03-15T14:33:36.267Z,14.85
2023-03-15T14:40:38.568Z,14.88
2023-03-15T14:47:55.397Z,14.32
2023-03-15T14:54:58.820Z,13.64
2023-03-15T15:02:02.710Z,13.45
2023-03-15T15:09:05.728Z,13.26
2023-03-15T15:16:07.756Z,12.73
2023-03-15T15:23:20.918Z,12.63
2023-03-15T15:30:24.918Z,12.56
2023-03-15T15:37:26.576Z,12.59
2023-03-15T15:44:28.246Z,12.56
2023-03-15T15:51:38.463Z,12.23
2023-03-15T15:58:40.952Z,12.29
2023-03-15T16:05:42.527Z,11.94
2023-03-15T16:12:44.119Z,11.57
2023-03-15T16:19:45.723Z,11.08
2023-03-15T16:26:47.361Z,10.59
2023-03-15T16:33:49.702Z,10.30
2023-03-15T16:40:52.248Z,10.46
2023-03-15T16:47:53.884Z,10.27
2023-03-15T16:54:55.423Z,10.04
2023-03-15T17:01:57.040Z,9.85
2023-03-15T17:09:00.862Z,9.70
2023-03-15T17:16:02.534Z,9.73
2023-03-15T17:23:04.806Z,9.61
2023-03-15T17:30:17.060Z,9.60
2023-03-15T17:37:18.715Z,9.56
2023-03-15T17:44:20.272Z,9.56
2023-03-15T17:51:26.922Z,9.39
2023-03-15T17:58:28.758Z,9.38
2023-03-15T18:05:30.526Z,9.28
2023-03-15T18:12:32.762Z,9.31
2023-03-15T18:19:34.347Z,9.22
2023-03-15T18:26:35.891Z,9.19
2023-03-15T18:33:37.390Z,9.13
2023-03-15T18:40:39.046Z,8.91
2023-03-15T18:47:40.669Z,8.78
2023-03-15T18:54:42.215Z,8.77
2023-03-15T19:01:44.040Z,8.62
2023-03-15T19:08:45.620Z,8.59
2023-03-15T19:15:47.664Z,8.49
2023-03-15T19:22:51.004Z,8.50
2023-03-15T19:29:52.521Z,8.47
2023-03-15T19:36:54.074Z,8.35
2023-03-15T19:43:55.618Z,8.26
2023-03-15T19:50:57.128Z,8.22
2023-03-15T19:57:59.040Z,8.25
2023-03-15T20:05:00.649Z,8.04
2023-03-15T20:12:02.232Z,8.05
2023-03-15T20:19:03.789Z,8.11
2023-03-15T20:26:10.768Z,8.06
2023-03-15T20:33:12.554Z,8.07
2023-03-15T20:40:15.010Z,7.85
2023-03-15T20:47:17.232Z,7.99
2023-03-15T20:54:18.838Z,7.85
2023-03-15T21:01:20.509Z,7.81
2023-03-15T21:08:22.058Z,7.87
2023-03-15T21:15:24.166Z,7.90
2023-03-15T21:22:25.746Z,7.81
2023-03-15T21:29:27.290Z,7.71
2023-03-15T21:36:28.833Z,7.60
2023-03-15T21:43:31.410Z,7.59
2023-03-15T21:50:32.947Z,7.71
2023-03-15T21:57:34.574Z,7.59
2023-03-15T22:04:36.351Z,7.61
2023-03-15T22:11:38.115Z,7.58
2023-03-15T22:18:39.826Z,7.46
2023-03-15T22:25:41.355Z,7.34
2023-03-15T22:32:45.823Z,7.20
2023-03-15T22:39:47.892Z,7.17
2023-03-15T22:46:49.541Z,7.26
2023-03-15T22:53:51.209Z,7.32
2023-03-15T23:00:52.758Z,7.11
2023-03-15T23:07:54.289Z,7.06
2023-03-15T23:14:55.849Z,7.11
2023-03-15T23:21:57.408Z,7.06
2023-03-15T23:28:58.949Z,6.89
2023-03-15T23:36:01.710Z,7.03
2023-03-15T23:43:05.770Z,6.91
2023-03-15T23:50:08.514Z,6.98
2023-03-15T23:57:11.324Z,6.95
